Time;durP1;ratioP1;P1;durP2;ratioP2;P2;SDS_P1;SDS_P2;PMS_P1;PMS_P2;Temp;Humidity;BMP_temperature;BMP_pressure;BME280_temperature;BME280_humidity;BME280_pressure;Samples;Min_cycle;Max_cycle;Signal;HPM_P1;HPM_P2
2022/08/10 00:00:21;;;;;;;10.15;2.25;;;;;;;24.18;42.16;101656.34;5076765;28;20067;-70
2022/08/10 00:03:15;;;;;;;7.07;2.28;;;;;;;24.20;41.91;101645.50;5077201;28;20037;-71
2022/08/10 00:06:54;;;;;;;7.63;2.47;;;;;;;24.11;42.13;101647.78;5063217;28;20052;-69
2022/08/10 00:09:43;;;;;;;5.97;2.22;;;;;;;24.05;42.12;101649.31;5077634;28;20053;-69
2022/08/10 00:12:20;;;;;;;7.82;2.22;;;;;;;24.20;42.22;101649.09;5045126;28;20059;-70
2022/08/10 00:15:31;;;;;;;7.18;2.03;;;;;;;24.03;42.32;101649.69;5075403;28;20516;-69
2022/08/10 00:19:20;;;;;;;6.25;2.22;;;;;;;23.94;42.72;101649.13;5052902;28;20052;-70
2022/08/10 00:21:57;;;;;;;6.90;2.42;;;;;;;23.77;42.66;101637.63;5076225;28;20057;-69
2022/08/10 00:25:36;;;;;;;;;;;;;;;;;;;;;
2022/08/10 00:28:11;;;;;;;6.97;2.50;;;;;;;23.52;43.45;101654.13;5051919;28;20075;-69
2022/08/10 00:31:15;;;;;;;10.45;2.25;;;;;;;23.61;43.63;101646.25;5038928;28;20048;-69
2022/08/10 00:34:39;;;;;;;7.72;2.38;;;;;;;23.60;43.45;101652.25;5051164;28;20067;-69
2022/08/10 00:37:19;;;;;;;4.70;2.00;;;;;;;23.59;43.56;101643.00;5054517;28;20045;-70
2022/08/10 00:39:50;;;;;;;5.85;2.40;;;;;;;23.68;43.41;101648.34;5057108;28;20057;-69
2022/08/10 00:42:17;;;;;;;5.68;2.00;;;;;;;23.72;43.25;101649.22;5073233;28;20048;-70
2022/08/10 00:44:47;;;;;;;10.40;2.20;;;;;;;23.66;43.46;101645.91;5071860;28;20762;-69
2022/08/10 00:47:15;;;;;;;;;;;;;;;23.63;43.54;101640.22;5078026;28;20052;-70
2022/08/10 00:50:04;;;;;;;8.07;2.22;;;;;;;23.65;43.30;101643.47;5076340;28;19924;-70
2022/08/10 00:52:32;;;;;;;6.85;1.95;;;;;;;23.78;43.00;101634.44;5075331;28;20057;-68
2022/08/10 00:55:01;;;;;;;7.28;1.95;;;;;;;23.22;44.37;101633.56;5092952;28;20781;-68
2022/08/10 00:57:29;;;;;;;7.27;1.83;;;;;;;23.49;43.80;101638.03;5093160;28;20082;-70
2022/08/10 00:59:57;;;;;;;5.38;2.15;;;;;;;23.53;43.85;101630.47;5091781;28;20060;-70
2022/08/10 01:02:27;;;;;;;;;;;;;;;23.65;43.58;101632.22;5076509;28;20057;-70
2022/08/10 01:04:57;;;;;;;8.55;2.50;;;;;;;23.71;43.44;101641.97;5058967;28;20330;-69
2022/08/10 01:07:52;;;;;;;8.50;2.10;;;;;;;23.52;43.55;101639.28;5075735;28;20052;-69
2022/08/10 01:10:32;;;;;;;5.93;2.08;;;;;;;23.30;44.13;101640.94;5077150;28;20053;-69
2022/08/10 01:13:16;;;;;;;8.48;2.33;;;;;;;23.21;44.38;101637.53;5056462;28;20052;-69
2022/08/10 01:16:05;;;;;;;7.22;2.20;;;;;;;23.40;44.07;101634.66;5060667;28;20603;-68
2022/08/10 01:18:39;;;;;;;9.13;2.13;;;;;;;23.38;44.11;101646.28;5076855;28;20049;-69
2022/08/10 01:21:22;;;;;;;11.60;2.53;;;;;;;23.46;43.93;101635.97;5076675;28;20052;-68
2022/08/10 01:24:12;;;;;;;9.85;2.70;;;;;;;23.21;44.39;101632.75;5079593;28;20056;-69
2022/08/10 01:26:45;;;;;;;6.68;2.08;;;;;;;23.36;44.10;101633.81;5056557;28;20049;-70
2022/08/10 01:29:37;;;;;;;7.32;2.20;;;;;;;23.47;43.63;101629.16;5056731;28;20060;-68
2022/08/10 01:32:06;;;;;;;6.68;2.20;;;;;;;23.16;44.61;101630.25;5079859;28;20522;-69
2022/08/10 01:34:58;;;;;;;10.90;2.33;;;;;;;23.34;44.15;101630.56;5055235;28;20049;-70
2022/08/10 01:37:29;;;;;;;7.65;2.35;;;;;;;23.24;44.14;101628.38;5055418;28;20646;-70
2022/08/10 01:39:59;;;;;;;6.20;2.30;;;;;;;23.35;44.24;101629.38;5055399;28;20053;-70
2022/08/10 01:42:30;;;;;;;7.65;2.38;;;;;;;23.23;44.15;101627.56;5056486;28;20060;-71
2022/08/10 01:45:02;;;;;;;7.55;2.15;;;;;;;23.27;44.34;101628.44;5055050;28;20052;-68
2022/08/10 01:50:34;;;;;;;9.90;2.40;;;;;;;23.39;43.69;101631.06;5071028;28;20068;-69
2022/08/10 01:53:25;;;;;;;5.80;2.40;;;;;;;23.30;43.99;101626.88;5054452;28;20068;-70
2022/08/10 01:55:53;;;;;;;6.85;2.53;;;;;;;22.88;45.01;101632.56;5056111;28;20408;-69
2022/08/10 01:58:22;;;;;;;7.95;2.50;;;;;;;23.11;44.48;101615.69;5054960;28;20037;-69
2022/08/10 02:00:50;;;;;;;7.10;2.00;;;;;;;23.29;44.58;101614.81;5084767;28;20451;-70
2022/08/10 02:03:19;;;;;;;8.13;2.40;;;;;;;23.17;44.27;101626.25;5074909;28;20048;-69
2022/08/10 02:05:52;;;;;;;5.82;2.10;;;;;;;23.08;44.59;101624.88;5075501;28;20044;-69
2022/08/10 02:08:22;;;;;;;5.38;2.40;;;;;;;22.94;45.02;101619.84;5074387;28;20500;-70
2022/08/10 02:10:50;;;;;;;7.57;2.20;;;;;;;22.95;44.86;101615.00;5058089;28;20060;-69
2022/08/10 02:13:18;;;;;;;6.43;2.50;;;;;;;22.85;45.11;101616.47;5074319;28;20048;-68
2022/08/10 02:15:48;;;;;;;7.43;2.20;;;;;;;22.86;45.35;101611.63;5071869;28;20476;-69
2022/08/10 02:18:29;;;;;;;6.93;2.10;;;;;;;23.12;44.50;101620.13;5074484;28;20044;-68
2022/08/10 02:20:58;;;;;;;5.97;2.10;;;;;;;23.06;44.69;101621.63;5073595;28;20543;-70
2022/08/10 02:23:31;;;;;;;6.63;2.20;;;;;;;22.67;45.83;101623.75;5065481;28;20543;-69
2022/08/10 02:26:00;;;;;;;8.05;1.90;;;;;;;22.91;45.38;101614.16;5054237;28;20049;-68
2022/08/10 02:28:30;;;;;;;11.73;2.60;;;;;;;23.00;44.92;101620.31;5070629;28;20049;-68
2022/08/10 02:31:10;;;;;;;9.80;2.60;;;;;;;23.11;44.71;101621.31;5068801;28;20476;-69
2022/08/10 02:33:41;;;;;;;8.43;2.13;;;;;;;22.86;45.24;101620.88;5055489;28;20067;-69
2022/08/10 02:36:25;;;;;;;7.18;2.05;;;;;;;22.88;45.21;101623.31;5053929;28;20044;-69
2022/08/10 02:38:54;;;;;;;6.97;2.67;;;;;;;22.67;45.95;101618.13;5054196;28;20052;-68
2022/08/10 02:41:46;;;;;;;5.90;2.10;;;;;;;22.65;45.87;101616.91;5054036;28;20045;-69
2022/08/10 02:44:49;;;;;;;5.72;2.33;;;;;;;22.71;45.97;101632.25;5054304;28;20067;-70
2022/08/10 02:47:56;;;;;;;7.72;2.40;;;;;;;22.47;46.68;101621.34;5054842;28;20045;-70
2022/08/10 02:50:35;;;;;;;6.15;2.30;;;;;;;22.46;46.43;101631.75;5053832;28;20060;-70
2022/08/10 02:53:14;;;;;;;8.10;2.35;;;;;;;22.46;46.61;101628.13;5053687;28;20060;-69
2022/08/10 02:56:17;;;;;;;5.15;2.33;;;;;;;22.51;46.27;101630.66;5070206;28;20531;-68
2022/08/10 02:58:51;;;;;;;12.30;2.33;;;;;;;22.45;46.54;101632.94;5053792;28;20048;-68
2022/08/10 03:01:22;;;;;;;4.90;2.20;;;;;;;22.59;46.52;101633.25;5049486;28;20056;-69
2022/08/10 03:04:05;;;;;;;10.52;2.40;;;;;;;22.57;46.23;101641.22;5033661;28;20053;-69
2022/08/10 03:06:36;;;;;;;6.00;2.15;;;;;;;22.21;47.43;101639.66;5049700;28;20603;-68
2022/08/10 03:09:06;;;;;;;5.63;2.13;;;;;;;22.13;47.25;101628.66;5049548;28;20081;-69
2022/08/10 03:11:42;;;;;;;8.15;2.35;;;;;;;22.10;47.60;101646.25;5035093;28;20058;-69
2022/08/10 03:14:32;;;;;;;7.93;2.50;;;;;;;22.20;47.18;101634.44;5034816;28;20057;-69
2022/08/10 03:17:00;;;;;;;4.18;2.05;;;;;;;22.37;46.79;101630.38;5071368;28;20061;-69
2022/08/10 03:19:29;;;;;;;9.18;2.15;;;;;;;22.20;47.28;101626.00;5074577;28;20055;-68
2022/08/10 03:22:16;;;;;;;11.05;2.70;;;;;;;22.38;46.83;101632.81;5074271;28;20053;-69
2022/08/10 03:24:44;;;;;;;7.40;2.30;;;;;;;22.48;46.80;101623.75;5055159;28;20053;-68
2022/08/10 03:27:13;;;;;;;7.38;2.17;;;;;;;22.52;46.72;101623.84;5054586;28;20052;-68
2022/08/10 03:29:41;;;;;;;10.70;2.75;;;;;;;22.38;46.97;101618.75;5053567;28;20064;-68
2022/08/10 03:32:29;;;;;;;7.70;2.50;;;;;;;22.37;46.89;101610.72;5054004;28;20126;-68
2022/08/10 03:34:57;;;;;;;5.28;2.08;;;;;;;22.40;46.75;101619.22;5054679;28;20052;-68
2022/08/10 03:37:26;;;;;;;5.93;2.17;;;;;;;22.47;46.79;101615.72;5053180;28;20504;-69
2022/08/10 03:39:54;;;;;;;8.20;2.10;;;;;;;22.41;46.99;101620.81;5053711;28;20052;-69
2022/08/10 03:42:22;;;;;;;4.57;2.38;;;;;;;22.15;47.44;101617.88;5052949;28;20053;-70
2022/08/10 03:44:51;;;;;;;5.07;2.30;;;;;;;22.05;47.91;101627.72;5052697;28;20059;-65
2022/08/10 03:47:20;;;;;;;5.60;2.55;;;;;;;22.43;47.00;101620.44;5049734;28;20049;-64
2022/08/10 03:49:48;;;;;;;5.63;2.20;;;;;;;22.42;46.92;101621.63;5034204;28;20037;-64
2022/08/10 03:52:17;;;;;;;5.65;2.30;;;;;;;22.18;47.46;101629.19;5032981;28;20053;-64
2022/08/10 03:54:44;;;;;;;6.50;2.15;;;;;;;22.11;47.92;101623.44;5033294;28;20425;-65
2022/08/10 03:57:12;;;;;;;12.88;2.35;;;;;;;22.01;47.84;101626.81;5034460;28;20048;-64
2022/08/10 03:59:40;;;;;;;6.38;2.40;;;;;;;22.12;47.77;101627.84;5033744;28;20052;-64
2022/08/10 04:02:08;;;;;;;7.03;2.47;;;;;;;22.04;47.72;101630.88;5052897;28;20041;-65
2022/08/10 04:04:55;;;;;;;7.40;2.42;;;;;;;22.04;48.25;101628.88;5053155;28;20057;-64
2022/08/10 04:07:23;;;;;;;7.75;2.40;;;;;;;21.73;48.45;101623.38;5052703;28;20049;-65
2022/08/10 04:09:52;;;;;;;6.18;2.47;;;;;;;21.79;48.79;101624.72;5052635;28;20060;-65
2022/08/10 04:12:23;;;;;;;8.20;2.42;;;;;;;21.72;48.71;101623.75;5052965;28;20052;-65
2022/08/10 04:14:50;;;;;;;9.35;2.70;;;;;;;21.65;49.24;101621.59;5038765;28;20059;-65
2022/08/10 04:17:21;;;;;;;7.15;2.40;;;;;;;21.74;49.00;101627.78;5072985;28;20052;-65
2022/08/10 04:20:33;;;;;;;8.88;2.80;;;;;;;21.54;49.46;101630.94;5074027;28;20098;-65
2022/08/10 04:23:13;;;;;;;5.43;2.22;;;;;;;21.93;48.34;101630.66;5068414;28;20056;-65
2022/08/10 04:25:40;;;;;;;6.82;2.13;;;;;;;21.79;48.51;101630.34;5052774;28;20049;-64
2022/08/10 04:28:09;;;;;;;9.13;2.78;;;;;;;21.77;48.68;101635.50;5053824;28;20511;-64
2022/08/10 04:30:36;;;;;;;6.00;2.63;;;;;;;21.83;48.47;101631.22;5055706;28;20049;-65
2022/08/10 04:33:05;;;;;;;6.50;2.70;;;;;;;21.90;48.41;101630.56;5057297;28;20048;-65
2022/08/10 04:35:33;;;;;;;5.22;2.20;;;;;;;21.83;48.66;101636.03;5056178;28;20045;-65
2022/08/10 04:38:02;;;;;;;7.50;2.50;;;;;;;21.69;48.91;101630.09;5056264;28;20049;-64
2022/08/10 04:40:30;;;;;;;6.65;2.15;;;;;;;21.76;48.93;101631.03;5056231;28;20048;-65
2022/08/10 04:42:58;;;;;;;7.00;2.33;;;;;;;21.98;48.49;101627.56;5055988;28;20044;-65
2022/08/10 04:45:31;;;;;;;7.18;2.72;;;;;;;21.72;48.66;101623.75;5056190;28;20525;-65
2022/08/10 04:48:23;;;;;;;6.05;2.67;;;;;;;21.57;49.41;101630.19;5072174;28;20558;-65
2022/08/10 04:51:16;;;;;;;11.48;2.97;;;;;;;21.59;49.53;101633.44;5056975;28;20140;-69
2022/08/10 04:53:47;;;;;;;7.95;2.85;;;;;;;21.17;50.40;101650.06;5055970;28;20049;-69
2022/08/10 04:56:34;;;;;;;6.13;2.50;;;;;;;21.30;50.66;101651.59;5067287;28;20512;-70
2022/08/10 04:59:03;;;;;;;6.70;2.17;;;;;;;21.42;50.26;101654.28;5092914;28;20044;-65
2022/08/10 05:01:31;;;;;;;8.93;2.78;;;;;;;21.40;50.23;101659.44;5074921;28;20510;-70
2022/08/10 05:04:18;;;;;;;9.15;2.45;;;;;;;21.39;50.30;101643.81;5076904;28;20048;-69
2022/08/10 05:07:09;;;;;;;8.60;2.60;;;;;;;21.53;49.69;101646.94;5075801;28;20060;-70
2022/08/10 05:09:43;;;;;;;8.75;2.50;;;;;;;21.58;49.69;101649.47;5076936;28;20051;-64
2022/08/10 05:12:33;;;;;;;7.13;2.75;;;;;;;21.68;49.24;101645.28;5076641;28;20542;-64
2022/08/10 05:15:11;;;;;;;9.55;2.35;;;;;;;21.62;49.33;101652.34;5076900;28;20047;-68
2022/08/10 05:17:40;;;;;;;11.05;2.60;;;;;;;21.85;49.15;101650.50;5075040;28;20060;-64
2022/08/10 05:20:28;;;;;;;6.32;2.40;;;;;;;21.52;49.82;101669.72;5089348;28;20040;-64
2022/08/10 05:22:55;;;;;;;8.48;2.72;;;;;;;21.62;49.86;101655.97;5071775;28;20416;-63
2022/08/10 05:25:22;;;;;;;9.57;2.80;;;;;;;21.65;49.89;101660.84;5056631;28;20056;-64
2022/08/10 05:27:50;;;;;;;5.32;2.65;;;;;;;21.77;49.47;101655.13;5052503;28;20060;-64
2022/08/10 05:30:20;;;;;;;8.30;2.58;;;;;;;21.89;49.11;101655.03;5074546;28;20045;-69
2022/08/10 05:32:48;;;;;;;14.43;2.90;;;;;;;21.75;49.56;101657.47;5074657;28;20049;-64
2022/08/10 05:35:27;;;;;;;10.82;3.22;;;;;;;21.74;49.48;101664.25;5057760;28;20061;-64
2022/08/10 05:37:57;;;;;;;9.15;2.97;;;;;;;21.64;49.66;101664.00;5076347;28;20060;-64
2022/08/10 05:40:42;;;;;;;8.25;2.60;;;;;;;21.76;49.64;101655.50;5074970;28;20056;-68
2022/08/10 05:43:15;;;;;;;11.93;2.53;;;;;;;21.72;49.48;101652.59;5035815;28;20049;-69
2022/08/10 05:45:44;;;;;;;8.68;2.65;;;;;;;21.90;49.09;101653.84;5035244;28;20061;-69
2022/08/10 05:48:32;;;;;;;5.95;2.53;;;;;;;21.85;48.95;101656.94;5039281;28;20048;-69
2022/08/10 05:51:20;;;;;;;7.22;2.50;;;;;;;21.70;49.62;101659.75;5055961;28;20083;-69
2022/08/10 05:53:48;;;;;;;17.83;2.88;;;;;;;21.63;49.81;101662.38;5072393;28;20048;-69
2022/08/10 05:56:33;;;;;;;11.02;2.85;;;;;;;21.48;50.14;101669.63;5040143;28;20048;-69
2022/08/10 05:59:21;;;;;;;9.10;2.78;;;;;;;21.39;50.46;101666.25;5036149;28;20060;-69
2022/08/10 06:02:10;;;;;;;11.70;2.58;;;;;;;21.54;50.03;101676.59;5035828;28;20516;-68
2022/08/10 06:04:59;;;;;;;17.08;3.28;;;;;;;21.54;49.93;101673.81;5035724;28;20057;-64
2022/08/10 06:07:29;;;;;;;6.60;2.80;;;;;;;21.78;49.65;101659.56;5034644;28;20064;-69
2022/08/10 06:09:57;;;;;;;8.15;2.70;;;;;;;22.14;48.47;101661.19;5034365;28;20120;-69
2022/08/10 06:12:28;;;;;;;10.77;2.65;;;;;;;22.11;48.77;101664.69;5056135;28;20053;-68
2022/08/10 06:15:00;;;;;;;14.63;2.97;;;;;;;21.93;48.81;101661.50;5075474;28;20067;-64
2022/08/10 06:17:36;;;;;;;11.85;2.90;;;;;;;21.81;49.02;101664.44;5074049;28;20055;-64
2022/08/10 06:20:04;;;;;;;11.57;3.15;;;;;;;21.71;49.39;101665.00;5075215;28;20515;-69
2022/08/10 06:22:32;;;;;;;12.40;3.00;;;;;;;21.74;49.49;101669.84;5073740;28;20416;-70
2022/08/10 06:25:01;;;;;;;10.13;3.25;;;;;;;21.65;49.67;101666.47;5054189;28;20060;-69
2022/08/10 06:27:49;;;;;;;13.35;3.47;;;;;;;21.60;49.72;101672.31;5060938;28;20049;-68
2022/08/10 06:30:18;;;;;;;15.07;2.97;;;;;;;21.58;50.20;101666.28;5074015;28;20068;-69
2022/08/10 06:32:48;;;;;;;;;;;;;;;21.51;49.85;101679.31;5053647;28;20049;-70
2022/08/10 06:35:24;;;;;;;12.23;3.40;;;;;;;21.66;50.04;101670.06;5027413;28;20395;-65
2022/08/10 06:38:01;;;;;;;7.15;3.10;;;;;;;21.84;49.32;101674.13;5020664;28;20500;-68
2022/08/10 06:40:33;;;;;;;9.85;3.30;;;;;;;21.82;49.10;101674.50;5035468;28;20048;-67
2022/08/10 06:43:04;;;;;;;13.98;3.30;;;;;;;21.97;48.89;101675.59;5057712;28;20427;-67
2022/08/10 06:45:42;;;;;;;9.52;3.05;;;;;;;21.98;48.85;101678.06;5068182;28;20049;-70
2022/08/10 06:48:12;;;;;;;10.70;3.75;;;;;;;;;;5053384;28;20053;-69
2022/08/10 06:50:47;;;;;;;13.40;3.88;;;;;;;21.86;49.03;101672.56;5050849;28;20057;-68
2022/08/10 06:53:31;;;;;;;15.75;3.53;;;;;;;22.01;48.77;101670.91;5050452;28;20669;-69
2022/08/10 06:56:21;;;;;;;7.45;3.58;;;;;;;22.10;48.26;101672.31;5062783;28;20056;-67
2022/08/10 06:59:14;;;;;;;17.30;3.58;;;;;;;22.04;48.58;101679.41;5032540;28;20064;-68
2022/08/10 07:01:53;;;;;;;13.45;3.40;;;;;;;21.95;48.70;101678.00;5065491;28;20041;-67
2022/08/10 07:04:41;;;;;;;12.65;3.35;;;;;;;22.06;48.37;101682.66;5067124;28;20063;-68
2022/08/10 07:07:16;;;;;;;14.18;3.60;;;;;;;22.27;48.01;101676.69;5061635;28;20119;-68
2022/08/10 07:09:44;;;;;;;17.05;3.55;;;;;;;22.43;47.40;101671.81;5050128;28;20044;-68
2022/08/10 07:12:13;;;;;;;11.15;3.95;;;;;;;22.17;48.02;101678.09;5049945;28;20053;-68
2022/08/10 07:14:43;;;;;;;13.57;3.70;;;;;;;22.37;47.78;101678.88;5056217;28;20056;-71
2022/08/10 07:17:16;;;;;;;8.38;3.03;;;;;;;22.22;47.99;101672.19;5051607;28;20063;-67
2022/08/10 07:20:00;;;;;;;9.30;3.03;;;;;;;22.43;47.81;101669.00;5054340;28;20075;-68
2022/08/10 07:22:30;;;;;;;15.43;3.40;;;;;;;22.38;47.56;101666.50;5064088;28;20061;-67
2022/08/10 07:25:23;;;;;;;12.38;3.50;;;;;;;22.56;47.13;101664.06;5049580;28;20049;-67
2022/08/10 07:27:51;;;;;;;15.07;5.10;;;;;;;22.80;46.79;101674.97;5051833;28;20053;-66
2022/08/10 07:30:32;;;;;;;13.52;3.90;;;;;;;22.98;45.86;101660.03;5053185;28;20052;-67
2022/08/10 07:33:00;;;;;;;10.70;3.42;;;;;;;23.00;46.23;101665.28;5051850;28;20048;-67
2022/08/10 07:35:28;;;;;;;9.27;3.20;;;;;;;23.22;45.70;101672.91;5048044;28;20048;-67
2022/08/10 07:38:06;;;;;;;14.60;3.35;;;;;;;23.46;44.87;101664.09;5038920;28;20408;-68
2022/08/10 07:40:35;;;;;;;11.98;3.20;;;;;;;23.58;44.63;101663.06;5053025;28;20056;-67
2022/08/10 07:43:03;;;;;;;13.23;3.40;;;;;;;23.72;43.99;101660.47;5052882;28;20048;-67
2022/08/10 07:45:31;;;;;;;11.52;3.28;;;;;;;23.70;44.31;101669.28;5034625;28;20052;-66
2022/08/10 07:48:05;;;;;;;8.43;2.65;;;;;;;23.71;44.06;101670.91;5053579;28;20057;-66
2022/08/10 07:50:36;;;;;;;8.23;2.97;;;;;;;23.89;43.50;101666.34;5050573;28;20052;-67
2022/08/10 07:53:07;;;;;;;14.45;3.70;;;;;;;23.84;43.61;101669.50;5051293;28;20048;-67
2022/08/10 07:55:40;;;;;;;14.05;3.28;;;;;;;24.05;43.03;101671.81;5067563;28;20045;-67
2022/08/10 07:58:34;;;;;;;14.80;3.30;;;;;;;24.25;42.41;101674.09;5047600;28;20049;-67
2022/08/10 08:01:02;;;;;;;6.20;3.05;;;;;;;24.10;42.70;101677.94;5050073;28;20396;-67
2022/08/10 08:03:30;;;;;;;11.40;3.28;;;;;;;24.36;42.48;101675.06;5053987;28;20044;-68
2022/08/10 08:05:59;;;;;;;8.43;3.30;;;;;;;24.70;41.83;101677.88;5047539;28;20411;-70
2022/08/10 08:08:40;;;;;;;16.67;5.85;;;;;;;24.92;41.41;101676.91;5048577;28;20044;-68
2022/08/10 08:11:08;;;;;;;12.10;3.53;;;;;;;24.86;41.21;101676.44;5049527;28;20049;-67
2022/08/10 08:13:53;;;;;;;13.70;3.22;;;;;;;24.51;41.30;101676.84;5055855;28;20052;-67
2022/08/10 08:16:22;;;;;;;11.20;3.17;;;;;;;24.70;41.15;101672.25;5053243;28;20049;-67
2022/08/10 08:18:54;;;;;;;11.93;3.33;;;;;;;24.80;41.31;101677.19;5052664;28;20523;-67
2022/08/10 08:21:42;;;;;;;9.50;3.08;;;;;;;25.18;40.62;101659.84;5057087;28;20037;-69
2022/08/10 08:24:32;;;;;;;15.95;3.58;;;;;;;24.96;40.79;101663.66;5051684;28;20056;-66
2022/08/10 08:27:02;;;;;;;11.00;3.42;;;;;;;24.58;41.44;101661.22;5051778;28;20539;-66
2022/08/10 08:29:34;;;;;;;10.90;3.40;;;;;;;24.77;41.15;101656.25;5050567;28;20056;-67
2022/08/10 08:32:03;;;;;;;7.82;3.00;;;;;;;25.08;40.11;101654.91;5053158;28;20068;-67
2022/08/10 08:34:31;;;;;;;21.70;3.30;;;;;;;25.19;39.94;101664.28;5051307;28;20056;-66
2022/08/10 08:37:00;;;;;;;12.63;3.38;;;;;;;25.31;39.79;101655.53;5054341;28;20068;-66
2022/08/10 08:39:27;;;;;;;14.20;3.35;;;;;;;25.25;39.60;101654.25;5049395;28;20606;-68
2022/08/10 08:42:08;;;;;;;10.70;3.17;;;;;;;25.07;40.31;101654.09;5053197;28;20514;-69
2022/08/10 08:44:59;;;;;;;10.32;3.20;;;;;;;24.94;40.15;101651.97;5032446;28;20056;-68
2022/08/10 08:47:52;;;;;;;11.80;5.57;;;;;;;25.09;39.91;101650.91;5056358;28;20376;-67
2022/08/10 08:50:35;;;;;;;10.35;3.17;;;;;;;25.16;39.97;101645.31;5051179;28;20049;-67
2022/08/10 08:53:14;;;;;;;11.90;3.63;;;;;;;25.27;39.33;101646.22;5032100;28;20064;-67
2022/08/10 08:55:53;;;;;;;16.55;3.63;;;;;;;25.18;39.11;101642.91;5052273;28;20060;-68
2022/08/10 08:59:20;;;;;;;15.73;3.63;;;;;;;25.23;38.93;101645.38;5048116;28;20063;-67
2022/08/10 09:02:30;;;;;;;9.45;3.53;;;;;;;25.37;38.84;101645.50;5040826;28;20053;-66
2022/08/10 09:05:13;;;;;;;8.27;3.20;;;;;;;25.32;38.89;101649.50;5065478;28;20061;-67
2022/08/10 09:08:01;;;;;;;8.88;3.15;;;;;;;25.65;38.63;101633.66;5051863;28;20052;-67
2022/08/10 09:10:38;;;;;;;15.10;3.53;;;;;;;25.58;38.63;101642.06;5049605;28;20041;-68
2022/08/10 09:13:13;;;;;;;12.85;3.58;;;;;;;25.53;38.22;101632.75;5044740;28;20492;-67
2022/08/10 09:15:55;;;;;;;10.65;3.88;;;;;;;25.65;38.08;101634.44;5049623;28;20049;-68
2022/08/10 09:19:04;;;;;;;15.00;3.72;;;;;;;25.79;37.96;101628.06;5046039;28;20041;-70
2022/08/10 09:21:46;;;;;;;14.63;4.05;;;;;;;25.66;38.18;101629.59;5048304;28;20060;-69
2022/08/10 09:24:45;;;;;;;14.45;3.53;;;;;;;25.67;37.98;101623.56;5047916;28;20056;-68
2022/08/10 09:27:20;;;;;;;12.60;3.55;;;;;;;25.67;37.91;101623.56;5055403;28;20060;-67
2022/08/10 09:29:57;;;;;;;13.75;3.65;;;;;;;25.52;37.44;101627.50;5046422;28;20045;-67
2022/08/10 09:32:44;;;;;;;15.57;3.65;;;;;;;25.77;36.84;101614.34;5062238;28;20785;-68
2022/08/10 09:36:00;;;;;;;12.43;3.05;;;;;;;25.94;36.74;101613.66;5047688;28;20049;-68
2022/08/10 09:38:56;;;;;;;8.98;3.08;;;;;;;26.18;36.04;101612.16;5053538;28;20119;-68
2022/08/10 09:41:34;;;;;;;17.85;3.40;;;;;;;26.02;36.68;101611.66;5051338;28;20037;-67
2022/08/10 09:44:02;;;;;;;17.15;3.70;;;;;;;26.09;36.58;101623.00;5051535;28;20673;-68
2022/08/10 09:46:44;;;;;;;15.20;3.97;;;;;;;26.11;36.79;101612.13;5050480;28;20412;-67
2022/08/10 09:49:41;;;;;;;13.07;3.17;;;;;;;26.31;36.49;101608.56;5047586;28;20056;-69
2022/08/10 09:52:30;;;;;;;;;;;;;;;26.38;35.51;101610.59;5065384;28;20041;-68
2022/08/10 09:55:23;;;;;;;12.00;3.33;;;;;;;26.54;35.38;101614.69;5065091;28;19925;-68
2022/08/10 09:58:13;;;;;;;19.63;4.18;;;;;;;26.65;35.08;101612.69;5053776;28;20049;-67
2022/08/10 10:00:46;;;;;;;13.30;3.20;;;;;;;26.67;35.22;101603.84;5048148;28;20049;-67
2022/08/10 10:03:14;;;;;;;17.00;3.90;;;;;;;26.65;35.18;101600.56;5045554;28;20057;-70
2022/08/10 10:06:31;;;;;;;13.18;3.58;;;;;;;26.90;34.32;101592.97;5059798;28;20049;-72
2022/08/10 10:09:08;;;;;;;15.77;3.40;;;;;;;26.89;34.68;101576.38;5048482;28;20515;-72
2022/08/10 10:11:49;;;;;;;11.05;3.42;;;;;;;27.09;34.28;101580.44;5049987;28;20056;-71
2022/08/10 10:18:00;;;;;;;5.75;2.92;;;;;;;27.31;33.86;101579.22;5050759;28;20671;-71
2022/08/10 10:20:40;;;;;;;12.40;3.35;;;;;;;27.28;33.56;101574.34;5029619;28;20064;-71
2022/08/10 10:23:07;;;;;;;;;;;;;;;27.27;33.19;101576.38;5049285;28;20053;-72
2022/08/10 10:25:42;;;;;;;7.93;3.45;;;;;;;27.45;32.84;101573.53;5063444;28;19928;-71
2022/08/10 10:28:48;;;;;;;7.57;2.72;;;;;;;27.46;32.70;101572.34;5034259;28;20416;-71
2022/08/10 10:31:57;;;;;;;10.05;3.00;;;;;;;27.35;32.90;101566.69;5025105;28;20053;-70
2022/08/10 10:34:55;;;;;;;12.57;2.85;;;;;;;27.53;32.77;101564.63;5049042;28;20048;-72
2022/08/10 10:37:24;;;;;;;12.77;2.78;;;;;;;27.62;32.72;101555.69;5065791;28;20065;-71
2022/08/10 10:40:13;;;;;;;8.63;2.70;;;;;;;27.69;32.29;101550.81;5031284;28;20053;-71
2022/08/10 10:42:41;;;;;;;8.77;2.63;;;;;;;27.83;31.83;101552.78;5050784;28;20048;-72
2022/08/10 10:45:27;;;;;;;13.05;3.33;;;;;;;27.89;31.21;101553.19;5047810;28;20045;-71
2022/08/10 10:48:06;;;;;;;6.75;2.90;;;;;;;28.02;31.12;101543.81;5052067;28;20060;-66
2022/08/10 10:50:40;;;;;;;12.00;2.30;;;;;;;28.18;30.71;101540.50;5038022;28;20053;-65
2022/08/10 10:53:32;;;;;;;18.17;3.25;;;;;;;28.23;30.42;101545.72;5058765;28;20057;-67
2022/08/10 10:56:00;;;;;;;9.52;2.80;;;;;;;28.21;30.92;101540.47;5041627;28;20045;-70
2022/08/10 10:58:54;;;;;;;7.13;2.47;;;;;;;28.17;30.60;101545.38;5052848;28;20049;-69
2022/08/10 11:01:22;;;;;;;10.00;2.78;;;;;;;28.25;30.74;101529.94;5052264;28;20041;-67
2022/08/10 11:04:01;;;;;;;9.73;3.00;;;;;;;28.31;30.45;101525.47;5037353;28;20056;-70
2022/08/10 11:06:49;;;;;;;12.25;3.85;;;;;;;28.44;30.09;101526.56;5057702;28;20060;-70
2022/08/10 11:09:21;;;;;;;6.95;2.13;;;;;;;28.53;27.96;101526.13;5041790;28;20058;-69
2022/08/10 11:12:15;;;;;;;9.73;2.92;;;;;;;28.67;27.59;101518.34;5043792;28;20040;-71
2022/08/10 11:14:57;;;;;;;5.35;2.10;;;;;;;28.65;27.70;101511.47;5045695;28;20057;-72
2022/08/10 11:17:33;;;;;;;4.28;2.42;;;;;;;28.78;27.26;101518.25;5043408;28;20052;-68
2022/08/10 11:20:11;;;;;;;10.23;2.35;;;;;;;28.71;27.13;101516.28;5043059;28;20061;-72
2022/08/10 11:22:57;;;;;;;6.88;2.30;;;;;;;28.78;26.73;101510.53;5061179;28;20065;-71
2022/08/10 11:25:30;;;;;;;7.47;2.10;;;;;;;28.78;26.04;101510.53;5049330;28;20052;-69
2022/08/10 11:28:17;;;;;;;17.60;2.90;;;;;;;28.88;25.75;101505.19;5040618;28;20063;-72
2022/08/10 11:31:09;;;;;;;16.38;3.08;;;;;;;29.00;25.77;101505.47;5045994;28;20057;-70
2022/08/10 11:33:45;;;;;;;9.88;2.50;;;;;;;29.11;25.46;101511.88;5038802;28;20053;-69
2022/08/10 11:36:46;;;;;;;9.60;2.33;;;;;;;29.08;25.46;101498.50;5065196;28;20540;-71
2022/08/10 11:39:36;;;;;;;5.40;2.22;;;;;;;29.25;26.06;101494.72;5049173;28;20051;-71
2022/08/10 11:42:30;;;;;;;7.38;2.90;;;;;;;29.27;25.99;101491.44;5054726;28;20751;-71
2022/08/10 11:45:07;;;;;;;7.72;2.17;;;;;;;29.39;25.77;101490.91;5055218;28;20049;-69
2022/08/10 11:47:40;;;;;;;8.23;2.60;;;;;;;29.29;25.80;101503.97;5034294;28;20061;-70
2022/08/10 11:50:27;;;;;;;8.88;2.20;;;;;;;29.40;26.05;101478.31;5054318;28;20053;-70
2022/08/10 11:53:26;;;;;;;9.20;2.63;;;;;;;29.58;25.59;101478.91;5067301;28;20041;-70
2022/08/10 11:56:06;;;;;;;7.97;2.40;;;;;;;29.69;25.92;101479.63;5057378;28;20172;-70
2022/08/10 12:01:29;;;;;;;7.70;2.40;;;;;;;29.80;25.66;101464.03;5061609;28;20400;-70
2022/08/10 12:03:59;;;;;;;7.47;2.20;;;;;;;29.92;25.57;101479.69;5049126;28;20052;-70
2022/08/10 12:06:27;;;;;;;9.40;1.88;;;;;;;29.90;24.91;101475.69;5045757;28;20048;-70
2022/08/10 12:09:15;;;;;;;9.30;2.67;;;;;;;29.80;24.79;101480.25;5062786;28;20057;-71
2022/08/10 12:12:04;;;;;;;10.35;1.90;;;;;;;29.81;24.90;101467.69;5048601;28;20044;-70
2022/08/10 12:14:34;;;;;;;6.32;1.90;;;;;;;29.75;24.36;101478.72;5059559;28;20079;-69
2022/08/10 12:17:15;;;;;;;6.90;2.08;;;;;;;29.64;24.61;101468.69;5064443;28;20057;-69
2022/08/10 12:19:48;;;;;;;5.25;1.88;;;;;;;29.68;24.81;101455.28;5049902;28;20476;-71
2022/08/10 12:22:56;;;;;;;6.97;2.90;;;;;;;29.90;24.45;101456.59;5059722;28;20033;-70
2022/08/10 12:25:35;;;;;;;4.93;2.63;;;;;;;30.02;24.46;101452.38;5065448;28;20053;-71
2022/08/10 12:28:33;;;;;;;8.05;2.25;;;;;;;30.12;24.35;101459.91;5044869;28;20059;-71